Time;durP1;ratioP1;P1;durP2;ratioP2;P2;SDS_P1;SDS_P2;PMS_P1;PMS_P2;Temp;Humidity;BMP_temperature;BMP_pressure;BME280_temperature;BME280_humidity;BME280_pressure;Samples;Min_cycle;Max_cycle;Signal;HPM_P1;HPM_P2
2022/05/12 00:00:51;;;;;;;4.57;2.80;;;;;;;20.96;42.10;99969.66;5039520;28;20075;-73
2022/05/12 00:03:18;;;;;;;3.65;2.50;;;;;;;20.82;42.37;99959.38;5028216;28;20053;-72
2022/05/12 00:05:45;;;;;;;4.53;3.25;;;;;;;20.83;42.76;99959.25;5036303;28;20543;-73
2022/05/12 00:08:12;;;;;;;6.18;2.83;;;;;;;20.93;42.66;99975.38;5040376;28;20091;-73
2022/05/12 00:10:41;;;;;;;5.53;2.72;;;;;;;20.79;42.66;99943.53;5039173;28;20095;-73
2022/05/12 00:13:08;;;;;;;5.70;2.70;;;;;;;20.84;42.55;99973.53;5041659;28;20053;-73
2022/05/12 00:15:36;;;;;;;3.95;2.85;;;;;;;20.88;42.54;99974.97;5042109;28;20069;-73
2022/05/12 00:18:06;;;;;;;4.38;2.70;;;;;;;20.77;42.84;99957.16;5039193;28;20077;-72
2022/05/12 00:20:36;;;;;;;4.45;2.40;;;;;;;20.81;42.93;99980.06;5037303;28;20470;-72
2022/05/12 00:23:12;;;;;;;4.28;2.60;;;;;;;20.78;43.05;99972.28;5041943;28;20053;-72
2022/05/12 00:25:40;;;;;;;4.95;2.53;;;;;;;20.72;42.95;99969.34;5034690;28;20381;-72
2022/05/12 00:28:07;;;;;;;4.20;2.60;;;;;;;20.72;43.20;99977.41;5045247;28;20052;-73
2022/05/12 00:30:34;;;;;;;3.83;2.45;;;;;;;20.70;43.36;99987.47;5036427;28;20072;-73
2022/05/12 00:33:01;;;;;;;5.00;2.75;;;;;;;20.67;43.24;99989.47;5044529;28;20055;-73
2022/05/12 00:35:28;;;;;;;5.00;2.47;;;;;;;20.64;43.46;100000.50;5033761;28;20045;-73
2022/05/12 00:37:55;;;;;;;2.53;2.33;;;;;;;20.61;43.76;99997.28;5040722;28;20072;-74
2022/05/12 00:40:21;;;;;;;4.57;2.65;;;;;;;20.54;44.07;99997.00;5039759;28;20072;-73
2022/05/12 00:43:03;;;;;;;6.00;2.47;;;;;;;20.51;44.05;99994.59;5042835;28;20147;-73
2022/05/12 00:45:35;;;;;;;4.38;2.20;;;;;;;20.53;44.01;99998.00;5042652;28;20080;-73
2022/05/12 00:48:03;;;;;;;3.97;2.85;;;;;;;20.48;44.11;99999.41;5043291;28;20055;-72
2022/05/12 00:50:39;;;;;;;4.72;2.55;;;;;;;20.41;44.48;99999.16;5042628;28;20135;-72
2022/05/12 00:53:09;;;;;;;4.53;2.35;;;;;;;20.40;44.71;100010.91;5043787;28;20075;-72
2022/05/12 00:55:38;;;;;;;4.18;2.28;;;;;;;20.34;44.55;100016.81;5044476;28;20087;-73
2022/05/12 00:58:08;;;;;;;3.90;2.25;;;;;;;20.31;44.95;100015.25;5047409;28;20087;-73
2022/05/12 01:00:36;;;;;;;5.63;2.20;;;;;;;20.24;45.13;100019.53;5041975;28;20065;-72
2022/05/12 01:03:09;;;;;;;4.50;2.33;;;;;;;20.07;45.31;99996.06;5041463;28;20072;-72
2022/05/12 01:05:36;;;;;;;4.90;2.33;;;;;;;20.16;45.49;100027.44;5042469;28;20041;-73
2022/05/12 01:08:03;;;;;;;4.90;2.63;;;;;;;20.15;45.61;100041.88;5041834;28;20119;-74
2022/05/12 01:10:30;;;;;;;3.95;2.28;;;;;;;19.78;46.07;99985.31;5043526;28;20110;-72
2022/05/12 01:12:58;;;;;;;3.20;2.45;;;;;;;20.07;46.16;100043.59;5045943;28;20045;-72
2022/05/12 01:15:26;;;;;;;4.00;2.10;;;;;;;19.97;46.49;100043.59;5039849;28;20057;-72
2022/05/12 01:18:22;;;;;;;4.00;2.38;;;;;;;19.93;46.50;100047.53;5042861;28;20045;-72
2022/05/12 01:20:50;;;;;;;2.65;1.98;;;;;;;19.95;46.81;100050.94;5023530;28;20057;-72
2022/05/12 01:23:28;;;;;;;4.20;2.30;;;;;;;19.90;47.08;100061.25;5044171;28;20052;-72
2022/05/12 01:25:58;;;;;;;3.03;2.10;;;;;;;19.88;47.18;100061.38;5047253;28;20136;-73
2022/05/12 01:28:26;;;;;;;4.50;2.13;;;;;;;19.92;47.53;100070.88;5040360;28;20498;-72
2022/05/12 01:30:53;;;;;;;7.75;2.38;;;;;;;19.84;47.35;100068.03;5041340;28;20045;-72
2022/05/12 01:33:20;;;;;;;4.07;2.45;;;;;;;19.81;47.75;100065.63;5042271;28;20099;-73
2022/05/12 01:35:47;;;;;;;6.55;2.20;;;;;;;19.80;48.11;100077.38;5022542;28;20054;-72
2022/05/12 01:38:14;;;;;;;3.50;2.30;;;;;;;19.75;48.40;100084.13;5037581;28;20045;-73
2022/05/12 01:40:43;;;;;;;6.60;2.30;;;;;;;19.71;48.37;100080.88;5041444;28;20076;-71
2022/05/12 01:43:12;;;;;;;4.50;2.33;;;;;;;19.60;48.85;100073.78;5049104;28;20677;-72
2022/05/12 01:45:39;;;;;;;4.28;2.20;;;;;;;19.61;49.07;100090.75;5044014;28;20077;-73
2022/05/12 01:48:08;;;;;;;4.80;2.20;;;;;;;19.58;49.35;100083.81;5043273;28;20589;-72
2022/05/12 01:50:37;;;;;;;6.20;2.00;;;;;;;19.58;49.69;100091.03;5045927;28;20076;-72
2022/05/12 01:53:04;;;;;;;3.78;1.90;;;;;;;19.45;49.85;100074.28;5038212;28;20114;-73
2022/05/12 01:55:31;;;;;;;5.65;2.33;;;;;;;19.42;49.86;100079.91;5043154;28;20138;-73
2022/05/12 01:57:58;;;;;;;2.15;1.60;;;;;;;19.47;50.36;100109.91;5047021;28;20098;-72
2022/05/12 02:00:27;;;;;;;5.22;1.90;;;;;;;19.42;50.65;100102.25;5044010;28;20044;-73
2022/05/12 02:02:54;;;;;;;6.43;2.33;;;;;;;19.41;50.71;100123.84;5040641;28;20041;-73
2022/05/12 02:05:21;;;;;;;4.38;1.80;;;;;;;19.37;51.02;100135.84;5028130;28;20865;-72
2022/05/12 02:07:48;;;;;;;2.88;1.85;;;;;;;19.28;51.42;100132.13;5023413;28;20057;-72
2022/05/12 02:10:19;;;;;;;7.80;2.33;;;;;;;19.23;51.70;100140.59;5039880;28;20413;-72
2022/05/12 02:12:46;;;;;;;4.45;1.80;;;;;;;19.21;51.79;100142.53;5041646;28;20102;-72
2022/05/12 02:15:13;;;;;;;2.83;1.92;;;;;;;19.11;52.04;100138.97;5039830;28;20257;-73
2022/05/12 02:17:40;;;;;;;10.07;2.33;;;;;;;19.16;52.34;100157.38;5040105;28;20057;-74
2022/05/12 02:20:08;;;;;;;4.82;1.90;;;;;;;18.97;52.74;100139.31;5045715;28;20107;-74
2022/05/12 02:22:34;;;;;;;4.97;2.10;;;;;;;18.86;53.08;100150.97;5041735;28;20596;-73
2022/05/12 02:25:01;;;;;;;5.57;1.95;;;;;;;19.01;53.30;100182.84;5041872;28;20076;-74
2022/05/12 02:27:27;;;;;;;3.22;2.08;;;;;;;18.94;53.86;100193.22;5034953;28;20106;-72
2022/05/12 02:29:54;;;;;;;5.95;1.90;;;;;;;18.84;54.07;100192.31;5038998;28;20084;-72
2022/05/12 02:32:22;;;;;;;2.83;2.03;;;;;;;18.81;54.14;100197.94;5043100;28;20057;-73
2022/05/12 02:34:48;;;;;;;2.90;2.10;;;;;;;18.75;54.59;100203.81;5044108;28;20428;-72
2022/05/12 02:37:16;;;;;;;6.05;2.05;;;;;;;18.71;54.89;100207.75;5041680;28;20045;-72
2022/05/12 02:39:43;;;;;;;4.07;1.80;;;;;;;18.63;55.31;100208.38;5038768;28;20052;-72
2022/05/12 02:42:10;;;;;;;4.90;1.80;;;;;;;18.54;55.86;100211.81;5045940;28;20068;-72
2022/05/12 02:44:37;;;;;;;3.78;1.88;;;;;;;18.46;56.46;100207.06;5047476;28;20044;-72
2022/05/12 02:47:07;;;;;;;3.83;1.77;;;;;;;18.43;56.32;100225.22;5042102;28;20107;-73
2022/05/12 02:49:34;;;;;;;3.53;2.20;;;;;;;18.37;56.47;100228.44;5046535;28;20488;-72
2022/05/12 02:52:01;;;;;;;3.70;1.88;;;;;;;18.25;56.75;100216.03;5043042;28;20429;-72
2022/05/12 02:54:27;;;;;;;5.70;1.92;;;;;;;18.28;56.98;100229.16;5040323;28;20084;-72
2022/05/12 02:56:55;;;;;;;4.18;1.73;;;;;;;18.20;57.28;100229.78;5039774;28;20099;-72
2022/05/12 02:59:24;;;;;;;6.30;1.85;;;;;;;18.04;57.48;100215.94;5043995;28;20044;-72
2022/05/12 03:01:51;;;;;;;2.97;1.95;;;;;;;18.05;57.86;100236.41;5045400;28;20103;-72
2022/05/12 03:04:18;;;;;;;7.07;2.33;;;;;;;18.07;58.05;100250.53;5040822;28;20668;-72
2022/05/12 03:06:44;;;;;;;4.13;1.80;;;;;;;17.97;58.28;100239.69;5039750;28;20067;-72
2022/05/12 03:09:11;;;;;;;4.32;1.80;;;;;;;17.96;58.62;100255.88;5036372;28;20076;-73
2022/05/12 03:11:39;;;;;;;10.50;2.25;;;;;;;17.88;58.93;100246.63;5044198;28;20119;-72
2022/05/12 03:14:06;;;;;;;3.92;1.50;;;;;;;17.81;59.12;100250.75;5039378;28;20049;-73
2022/05/12 03:16:34;;;;;;;4.50;1.90;;;;;;;17.79;59.48;100259.88;5036544;28;20092;-72
2022/05/12 03:19:01;;;;;;;6.28;2.05;;;;;;;17.71;60.22;100270.38;5041370;28;20107;-72
2022/05/12 03:21:28;;;;;;;8.40;1.92;;;;;;;17.67;60.17;100259.03;5038135;28;20053;-72
2022/05/12 03:23:55;;;;;;;4.50;2.00;;;;;;;17.66;60.38;100267.19;5046833;28;20546;-72
2022/05/12 03:26:22;;;;;;;7.03;2.13;;;;;;;17.63;60.51;100276.28;5043877;28;20131;-72
2022/05/12 03:28:48;;;;;;;6.53;2.00;;;;;;;17.46;60.90;100252.66;5042790;28;20079;-72
2022/05/12 03:31:15;;;;;;;7.03;2.15;;;;;;;17.58;61.05;100275.81;5038680;28;20064;-72
2022/05/12 03:33:42;;;;;;;6.25;1.98;;;;;;;17.60;61.11;100279.22;5040449;28;20106;-72
2022/05/12 03:36:08;;;;;;;5.18;1.90;;;;;;;17.56;61.44;100274.22;5042878;28;20053;-73
2022/05/12 03:38:35;;;;;;;5.93;1.80;;;;;;;17.58;61.27;100285.66;5037311;28;20065;-73
2022/05/12 03:41:02;;;;;;;6.75;2.10;;;;;;;17.57;61.70;100286.63;5039674;28;20533;-73
2022/05/12 03:46:14;;;;;;;7.50;2.25;;;;;;;17.51;61.76;100291.47;5032649;28;20658;-73
2022/05/12 03:48:42;;;;;;;7.07;2.20;;;;;;;17.48;62.49;100293.53;5032443;28;20378;-72
2022/05/12 03:51:09;;;;;;;6.65;2.25;;;;;;;17.44;62.44;100295.63;5041708;28;20132;-73
2022/05/12 03:53:36;;;;;;;6.35;2.00;;;;;;;17.22;62.73;100265.25;5037437;28;20156;-73
2022/05/12 03:56:05;;;;;;;4.68;2.35;;;;;;;17.34;63.06;100305.31;5034619;28;20045;-73
2022/05/12 03:58:32;;;;;;;5.10;2.10;;;;;;;17.30;63.25;100311.88;5044485;28;20206;-73
2022/05/12 04:00:59;;;;;;;4.65;2.17;;;;;;;17.26;63.59;100313.06;5034325;28;20407;-73
2022/05/12 04:03:27;;;;;;;3.42;1.85;;;;;;;17.24;63.76;100322.19;5022165;28;20052;-73
2022/05/12 04:05:59;;;;;;;4.68;2.00;;;;;;;17.23;63.76;100325.81;5041061;28;20128;-73
2022/05/12 04:08:25;;;;;;;8.50;2.00;;;;;;;17.18;64.17;100324.34;5040161;28;20144;-73
2022/05/12 04:10:52;;;;;;;8.80;2.10;;;;;;;17.24;63.92;100330.22;5040562;28;20049;-73
2022/05/12 04:13:20;;;;;;;5.97;2.40;;;;;;;17.16;64.04;100318.25;5036096;28;20070;-72
2022/05/12 04:15:48;;;;;;;6.00;2.00;;;;;;;17.33;63.95;100340.22;5025601;28;20563;-73
2022/05/12 04:18:14;;;;;;;8.13;2.42;;;;;;;17.40;63.92;100341.47;5044175;28;20509;-72
2022/05/12 04:20:42;;;;;;;6.25;1.95;;;;;;;17.42;63.35;100337.72;5040744;28;20504;-72
2022/05/12 04:23:09;;;;;;;5.63;1.63;;;;;;;17.49;63.71;100346.09;5045420;28;20057;-72
2022/05/12 04:25:36;;;;;;;3.70;2.35;;;;;;;17.58;62.83;100361.47;5040295;28;20053;-72
2022/05/12 04:28:04;;;;;;;6.72;2.30;;;;;;;17.63;62.79;100361.97;5042186;28;20057;-72
2022/05/12 04:30:30;;;;;;;11.45;2.45;;;;;;;17.47;62.63;100326.66;5043765;28;20061;-72
2022/05/12 04:35:09;;;;;;;5.30;2.25;;;;;;;17.66;63.03;100364.44;5046247;28;20088;-72
2022/05/12 04:35:44;;;;;;;3.92;2.10;;;;;;;17.72;63.28;100372.03;5040980;28;20053;-72
2022/05/12 04:38:11;;;;;;;5.93;2.10;;;;;;;17.72;63.10;100379.19;5041039;28;20077;-72
2022/05/12 04:40:38;;;;;;;8.73;2.17;;;;;;;17.66;63.42;100364.44;5039701;28;20049;-72
2022/05/12 04:43:05;;;;;;;8.77;2.08;;;;;;;17.78;63.00;100392.13;5047502;28;20128;-73
2022/05/12 04:45:32;;;;;;;7.72;2.42;;;;;;;17.72;62.69;100368.50;5041181;28;20065;-72
2022/05/12 04:47:59;;;;;;;6.75;2.45;;;;;;;17.80;63.27;100382.13;5035482;28;20053;-73
2022/05/12 04:50:29;;;;;;;3.85;1.80;;;;;;;17.79;62.88;100375.91;5042447;28;20417;-73
2022/05/12 04:52:56;;;;;;;6.57;1.83;;;;;;;17.72;62.94;100374.69;5041701;28;20041;-73
2022/05/12 04:55:23;;;;;;;7.18;2.05;;;;;;;17.78;62.80;100379.59;5040583;28;20061;-72
2022/05/12 04:57:53;;;;;;;6.60;1.92;;;;;;;17.86;62.64;100398.59;5037275;28;20041;-72
2022/05/12 05:00:23;;;;;;;7.53;1.63;;;;;;;17.88;62.86;100402.00;5039392;28;20060;-72
2022/05/12 05:02:50;;;;;;;5.47;2.10;;;;;;;17.88;62.65;100396.66;5047639;28;20068;-72
2022/05/12 05:05:18;;;;;;;3.30;1.88;;;;;;;17.94;61.89;100416.78;5044595;28;20135;-73
2022/05/12 05:07:45;;;;;;;5.30;1.88;;;;;;;17.92;61.73;100423.22;5043961;28;20085;-72
2022/05/12 05:10:12;;;;;;;5.15;1.60;;;;;;;17.91;62.05;100425.03;5037706;28;20535;-73
2022/05/12 05:12:42;;;;;;;6.43;1.70;;;;;;;17.87;62.21;100426.22;5040169;28;20400;-72
2022/05/12 05:15:10;;;;;;;5.78;1.63;;;;;;;17.92;61.45;100441.97;5043328;28;20136;-73
2022/05/12 05:17:40;;;;;;;8.83;1.87;;;;;;;17.82;61.13;100437.28;5042247;28;20049;-73
2022/05/12 05:20:11;;;;;;;2.92;1.25;;;;;;;17.85;61.08;100436.22;5041932;28;20060;-75
2022/05/12 05:22:37;;;;;;;3.35;1.63;;;;;;;17.84;60.77;100448.75;5040272;28;20076;-73
2022/05/12 05:25:05;;;;;;;3.38;1.40;;;;;;;17.69;61.13;100431.16;5044166;28;20041;-72
2022/05/12 05:27:33;;;;;;;6.20;1.30;;;;;;;17.53;60.65;100419.88;5044745;28;20129;-72
2022/05/12 05:30:00;;;;;;;5.55;1.52;;;;;;;17.65;61.46;100455.59;5042033;28;20045;-72
2022/05/12 05:32:27;;;;;;;7.88;1.75;;;;;;;17.69;60.91;100465.97;5043501;28;20416;-74
2022/05/12 05:34:54;;;;;;;5.10;1.30;;;;;;;17.67;60.07;100459.88;5044739;28;20103;-72
2022/05/12 05:37:21;;;;;;;3.88;1.38;;;;;;;17.68;59.98;100464.28;5043675;28;20481;-72
2022/05/12 05:39:48;;;;;;;3.83;1.23;;;;;;;17.72;58.97;100471.13;5041878;28;20076;-74
2022/05/12 05:42:21;;;;;;;6.03;1.65;;;;;;;17.85;58.42;100481.75;5044555;28;20693;-72
2022/05/12 05:44:47;;;;;;;4.47;1.50;;;;;;;17.96;58.56;100481.78;5044618;28;20065;-72
2022/05/12 05:47:15;;;;;;;2.60;1.15;;;;;;;18.10;57.78;100489.63;5039673;28;20045;-74
2022/05/12 05:49:42;;;;;;;3.55;1.10;;;;;;;18.29;56.76;100501.59;5041721;28;20049;-73
2022/05/12 05:54:55;;;;;;;3.17;1.17;;;;;;;18.23;57.09;100498.44;5042263;28;20045;-71
2022/05/12 05:57:30;;;;;;;3.60;1.00;;;;;;;18.20;57.17;100506.72;5042826;28;20057;-75
2022/05/12 05:59:58;;;;;;;6.00;1.17;;;;;;;18.09;56.15;100495.13;5039229;28;20045;-75
2022/05/12 06:02:25;;;;;;;2.22;1.10;;;;;;;18.11;57.57;100510.09;5038472;28;20568;-76
2022/05/12 06:04:52;;;;;;;5.72;1.95;;;;;;;18.12;57.29;100522.50;5045764;28;20057;-82
2022/05/12 06:07:19;;;;;;;5.75;1.20;;;;;;;17.91;58.02;100504.56;5039972;28;20102;-77
2022/05/12 06:09:45;;;;;;;4.97;1.30;;;;;;;18.01;57.21;100519.81;5041466;28;20061;-83
2022/05/12 06:12:12;;;;;;;4.15;1.45;;;;;;;17.97;57.73;100523.69;5028121;28;20045;-80
2022/05/12 06:14:39;;;;;;;4.97;1.52;;;;;;;17.87;58.08;100517.31;5045437;28;20069;-79
2022/05/12 06:17:06;;;;;;;4.45;1.67;;;;;;;17.81;57.67;100521.31;5045593;28;20130;-76
2022/05/12 06:19:33;;;;;;;8.60;1.45;;;;;;;17.90;58.10;100530.50;5042485;28;20121;-81
2022/05/12 06:22:00;;;;;;;3.30;1.27;;;;;;;18.05;57.31;100532.00;5043448;28;20131;-76
2022/05/12 06:24:28;;;;;;;3.83;1.08;;;;;;;18.21;56.65;100537.91;5040289;28;20045;-75
2022/05/12 06:26:55;;;;;;;2.35;1.30;;;;;;;18.35;56.43;100544.03;5043066;28;20056;-77
2022/05/12 06:29:22;;;;;;;5.55;1.45;;;;;;;18.09;56.68;100482.56;5041442;28;20064;-75
2022/05/12 06:31:48;;;;;;;8.15;1.73;;;;;;;18.55;56.03;100546.03;5041454;28;20068;-80
2022/05/12 06:34:16;;;;;;;3.75;1.35;;;;;;;18.85;55.00;100554.41;5040774;28;20127;-80
2022/05/12 06:36:44;;;;;;;5.03;1.30;;;;;;;19.26;53.61;100550.25;5023757;28;20052;-77
2022/05/12 06:39:10;;;;;;;4.10;1.27;;;;;;;19.38;52.74;100559.13;5041066;28;20179;-75
2022/05/12 06:41:38;;;;;;;8.52;1.95;;;;;;;19.34;52.74;100555.00;5041973;28;20053;-75
2022/05/12 06:44:05;;;;;;;4.28;1.35;;;;;;;19.27;53.06;100560.84;5039747;28;20479;-73
2022/05/12 06:46:32;;;;;;;5.55;1.20;;;;;;;19.19;52.83;100563.31;5040066;28;20140;-76
2022/05/12 06:49:02;;;;;;;4.68;1.40;;;;;;;19.12;53.49;100542.44;5043285;28;20563;-72
2022/05/12 06:51:29;;;;;;;3.50;1.00;;;;;;;19.29;52.74;100571.47;5043212;28;20044;-76
2022/05/12 06:53:56;;;;;;;6.45;1.30;;;;;;;19.14;52.88;100570.88;5045019;28;20053;-73
2022/05/12 06:56:22;;;;;;;4.05;1.30;;;;;;;19.02;53.45;100581.75;5041957;28;20128;-76
2022/05/12 06:58:49;;;;;;;4.72;1.40;;;;;;;18.85;53.19;100542.81;5038142;28;20049;-75
2022/05/12 07:01:16;;;;;;;3.53;1.13;;;;;;;18.83;53.18;100555.50;5040271;28;20099;-74
2022/05/12 07:03:43;;;;;;;2.63;1.27;;;;;;;18.87;53.47;100573.91;5038344;28;20061;-74
2022/05/12 07:06:09;;;;;;;9.75;1.70;;;;;;;18.93;53.97;100572.56;5044389;28;20063;-78
2022/05/12 07:08:40;;;;;;;2.95;1.45;;;;;;;18.97;53.15;100586.59;5042251;28;20061;-72
2022/05/12 07:11:07;;;;;;;;;;;;;;;19.30;53.02;100575.88;5046798;28;20052;-73
2022/05/12 07:13:35;;;;;;;4.10;1.40;;;;;;;19.71;52.74;100585.97;5038489;28;20173;-74
2022/05/12 07:16:03;;;;;;;2.58;1.25;;;;;;;19.46;51.66;100568.28;5049523;28;20088;-72
2022/05/12 07:18:30;;;;;;;6.82;1.33;;;;;;;18.99;53.25;100576.59;5043604;28;20037;-77
2022/05/12 07:26:49;;;;;;;8.43;1.50;;;;;;;20.57;50.47;100590.44;5042071;28;20085;-72
2022/05/12 07:29:19;;;;;;;3.10;1.25;;;;;;;21.76;46.83;100582.59;5040722;28;20072;-72
2022/05/12 07:31:49;;;;;;;5.75;2.42;;;;;;;22.85;44.25;100588.59;5044415;28;20053;-72
2022/05/12 07:34:18;;;;;;;4.13;1.50;;;;;;;23.56;43.42;100590.78;5043903;28;20056;-74
2022/05/12 07:36:50;;;;;;;3.75;1.38;;;;;;;23.73;42.09;100588.09;5037580;28;20045;-73
2022/05/12 07:39:22;;;;;;;4.38;1.30;;;;;;;22.84;44.71;100589.59;5042486;28;20504;-73
2022/05/12 07:41:49;;;;;;;3.38;1.60;;;;;;;22.04;45.60;100603.38;5039498;28;20049;-73
2022/05/12 07:44:19;;;;;;;4.85;1.35;;;;;;;21.49;46.60;100584.09;5044473;28;20074;-77
2022/05/12 07:46:47;;;;;;;6.03;1.38;;;;;;;21.37;47.26;100590.59;5042974;28;20049;-72
2022/05/12 07:49:14;;;;;;;4.38;1.25;;;;;;;21.21;47.38;100603.72;5042331;28;20049;-72
2022/05/12 07:51:47;;;;;;;4.93;1.50;;;;;;;20.99;47.70;100591.22;5044298;28;20091;-72
2022/05/12 07:54:14;;;;;;;6.90;1.25;;;;;;;21.58;46.88;100591.34;5045682;28;20374;-74
2022/05/12 07:56:40;;;;;;;3.45;1.20;;;;;;;22.32;44.61;100607.13;5040670;28;20991;-74
2022/05/12 07:59:07;;;;;;;3.88;1.40;;;;;;;22.37;44.80;100592.19;5047113;28;20092;-77
2022/05/12 08:01:34;;;;;;;4.70;1.35;;;;;;;21.98;45.75;100617.41;5046529;28;20412;-78
2022/05/12 08:04:01;;;;;;;5.30;1.48;;;;;;;21.12;47.67;100613.41;5039468;28;20053;-79
2022/05/12 08:06:28;;;;;;;6.57;1.65;;;;;;;20.90;48.34;100619.81;5030214;28;20060;-74
2022/05/12 08:08:55;;;;;;;3.88;1.48;;;;;;;21.38;48.05;100615.69;5045335;28;20053;-72
2022/05/12 08:11:21;;;;;;;2.53;1.33;;;;;;;22.04;45.57;100616.88;5042661;28;20048;-72
2022/05/12 08:13:48;;;;;;;7.90;1.75;;;;;;;22.11;44.39;100612.63;5042113;28;20128;-72
2022/05/12 08:16:17;;;;;;;6.28;1.40;;;;;;;22.23;42.73;100613.34;5043433;28;20481;-71
2022/05/12 08:18:46;;;;;;;5.47;1.35;;;;;;;21.77;44.21;100617.50;5042009;28;20048;-71
2022/05/12 08:21:14;;;;;;;6.13;1.25;;;;;;;21.98;44.19;100590.44;5045084;28;20064;-73
2022/05/12 08:23:41;;;;;;;4.95;1.20;;;;;;;21.62;44.85;100610.81;5047270;28;20471;-72
2022/05/12 08:26:08;;;;;;;5.85;1.40;;;;;;;21.44;45.52;100626.75;5044823;28;20041;-74
2022/05/12 08:28:37;;;;;;;5.50;1.10;;;;;;;21.45;45.17;100636.56;5043545;28;20111;-74
2022/05/12 08:31:04;;;;;;;3.47;1.23;;;;;;;21.42;45.49;100614.41;5046315;28;20497;-76
2022/05/12 08:33:37;;;;;;;3.47;1.30;;;;;;;21.71;44.74;100631.56;5042695;28;20041;-70
2022/05/12 08:36:04;;;;;;;2.28;0.98;;;;;;;21.67;43.51;100636.38;5040568;28;20408;-71
2022/05/12 08:38:31;;;;;;;4.40;1.38;;;;;;;21.10;45.20;100627.97;5042758;28;20079;-72
2022/05/12 08:41:13;;;;;;;4.13;1.30;;;;;;;20.73;47.27;100643.78;5043835;28;20044;-71
2022/05/12 08:43:51;;;;;;;3.20;1.30;;;;;;;20.32;47.55;100630.09;5044942;28;20049;-72
2022/05/12 08:46:45;;;;;;;3.55;1.52;;;;;;;20.58;46.95;100633.34;5040325;28;20045;-74
2022/05/12 08:49:51;;;;;;;3.33;1.50;;;;;;;21.35;44.96;100641.91;5042849;28;20049;-78
2022/05/12 08:52:44;;;;;;;3.90;1.63;;;;;;;22.10;44.14;100639.75;5023428;28;20411;-80
2022/05/12 08:55:18;;;;;;;5.25;1.33;;;;;;;22.29;43.48;100642.47;5040035;28;20103;-80
2022/05/12 08:58:05;;;;;;;4.88;1.30;;;;;;;22.58;43.29;100627.13;5044402;28;20049;-73
2022/05/12 09:00:40;;;;;;;5.35;1.63;;;;;;;23.44;40.72;100645.00;5043776;28;20861;-76
2022/05/12 09:03:20;;;;;;;4.30;1.33;;;;;;;23.03;39.35;100650.81;5041783;28;20073;-71
2022/05/12 09:06:02;;;;;;;5.32;1.23;;;;;;;22.24;41.51;100650.13;5045233;28;20059;-73
2022/05/12 09:09:00;;;;;;;4.90;1.23;;;;;;;22.08;41.95;100633.63;5043325;28;20049;-74
2022/05/12 09:11:39;;;;;;;4.60;1.42;;;;;;;22.61;41.71;100632.22;5042763;28;20519;-72
2022/05/12 09:14:56;;;;;;;4.95;1.20;;;;;;;23.00;39.75;100642.97;5044120;28;20076;-71
2022/05/12 09:17:34;;;;;;;3.25;0.93;;;;;;;22.94;39.78;100638.19;5039376;28;20094;-77
2022/05/12 09:20:01;;;;;;;4.43;0.95;;;;;;;23.13;38.14;100635.44;5052377;28;20057;-73
2022/05/12 09:22:29;;;;;;;3.13;1.10;;;;;;;22.88;39.19;100638.75;5051158;28;20056;-72
2022/05/12 09:24:56;;;;;;;1.70;0.90;;;;;;;22.48;39.45;100653.28;5048235;28;20091;-72
2022/05/12 09:27:32;;;;;;;2.75;0.90;;;;;;;22.01;40.99;100623.41;5049127;28;20132;-78
2022/05/12 09:29:59;;;;;;;4.32;1.10;;;;;;;21.91;41.07;100648.59;5049989;28;20441;-73
2022/05/12 09:32:33;;;;;;;3.75;1.13;;;;;;;21.78;41.46;100642.63;5045838;28;20037;-71
2022/05/12 09:35:19;;;;;;;3.40;1.10;;;;;;;21.79;41.94;100638.94;5045601;28;20103;-72
2022/05/12 09:37:47;;;;;;;3.40;1.02;;;;;;;22.03;41.21;100637.63;5044120;28;20051;-71
2022/05/12 09:40:16;;;;;;;4.35;1.00;;;;;;;22.05;40.95;100643.69;5046152;28;20053;-72
2022/05/12 09:42:46;;;;;;;4.35;1.10;;;;;;;21.76;41.53;100640.06;5046533;28;20049;-72
2022/05/12 09:45:16;;;;;;;3.63;1.17;;;;;;;21.88;41.49;100638.94;5043785;28;20111;-73
2022/05/12 09:47:43;;;;;;;3.95;1.13;;;;;;;22.20;41.29;100633.34;5040229;28;20556;-72
2022/05/12 09:50:20;;;;;;;2.60;1.10;;;;;;;22.52;39.94;100616.88;5051332;28;20123;-73
2022/05/12 09:52:53;;;;;;;3.35;1.10;;;;;;;22.93;39.57;100636.47;5045479;28;20125;-74
2022/05/12 09:55:27;;;;;;;5.45;1.45;;;;;;;22.69;39.66;100632.34;5046371;28;20053;-72
2022/05/12 09:58:14;;;;;;;2.58;1.08;;;;;;;21.88;41.05;100638.13;5047666;28;20059;-71
2022/05/12 10:00:42;;;;;;;3.30;1.40;;;;;;;21.41;42.46;100634.28;5047009;28;20053;-71
2022/05/12 10:09:09;;;;;;;3.03;1.10;;;;;;;22.10;41.35;100615.47;5032954;28;20065;-71
2022/05/12 10:11:47;;;;;;;2.25;0.98;;;;;;;22.36;40.69;100611.22;5040466;28;20056;-73
2022/05/12 10:14:23;;;;;;;2.28;1.00;;;;;;;22.31;40.44;100613.50;5037060;28;20068;-74
2022/05/12 10:16:57;;;;;;;5.65;0.98;;;;;;;22.26;40.79;100610.38;5041974;28;20053;-80
2022/05/12 10:19:29;;;;;;;4.93;1.33;;;;;;;21.89;41.78;100604.75;5043317;28;20053;-71
2022/05/12 10:22:07;;;;;;;3.30;1.27;;;;;;;21.70;42.56;100609.13;5036214;28;20049;-73
2022/05/12 10:24:52;;;;;;;2.90;0.98;;;;;;;21.86;42.01;100596.97;5039470;28;20049;-72
2022/05/12 10:27:37;;;;;;;2.40;1.02;;;;;;;22.28;40.20;100586.81;5044098;28;20037;-73
2022/05/12 10:30:33;;;;;;;2.83;1.05;;;;;;;22.74;39.64;100599.53;5041555;28;20061;-72
2022/05/12 10:33:18;;;;;;;3.25;1.00;;;;;;;22.79;39.00;100605.38;5025058;28;20128;-71
2022/05/12 10:35:57;;;;;;;4.65;1.60;;;;;;;23.03;38.21;100599.47;5048045;28;21007;-73
2022/05/12 10:38:30;;;;;;;1.95;0.95;;;;;;;22.82;38.37;100582.66;5041882;28;20473;-71
2022/05/12 10:41:04;;;;;;;4.20;1.23;;;;;;;23.13;38.73;100600.31;5042634;28;20064;-71
2022/05/12 10:43:42;;;;;;;2.92;1.35;;;;;;;23.18;38.98;100606.13;5048035;28;20057;-81
2022/05/12 10:46:30;;;;;;;2.90;1.33;;;;;;;22.51;38.73;100608.97;5043224;28;20053;-73
2022/05/12 10:49:20;;;;;;;2.53;1.20;;;;;;;21.81;40.71;100605.47;5045550;28;20563;-72
2022/05/12 10:52:02;;;;;;;4.65;1.27;;;;;;;21.90;40.93;100601.06;5033108;28;20141;-73
2022/05/12 10:54:50;;;;;;;2.30;1.05;;;;;;;22.12;40.92;100600.00;5034087;28;20621;-72
2022/05/12 10:57:39;;;;;;;7.07;1.45;;;;;;;22.11;40.04;100592.91;5034925;28;20103;-73
2022/05/12 11:00:31;;;;;;;3.67;1.05;;;;;;;21.99;40.68;100592.16;5046832;28;20056;-75
2022/05/12 11:03:29;;;;;;;2.35;1.10;;;;;;;21.95;40.22;100575.41;5043207;28;20055;-72
2022/05/12 11:05:59;;;;;;;1.80;1.10;;;;;;;22.18;39.28;100580.56;5045208;28;20053;-72
2022/05/12 11:08:38;;;;;;;3.63;0.90;;;;;;;22.49;39.52;100574.00;5047754;28;20049;-73
2022/05/12 11:11:24;;;;;;;5.60;1.55;;;;;;;23.09;39.02;100574.59;5040131;28;20631;-72
2022/05/12 11:14:16;;;;;;;3.75;0.80;;;;;;;23.15;37.41;100546.13;5035430;28;20148;-74
2022/05/12 11:17:00;;;;;;;2.90;0.82;;;;;;;23.25;37.00;100552.34;5042900;28;20107;-72
2022/05/12 11:19:28;;;;;;;4.03;1.25;;;;;;;23.59;37.59;100569.69;5034635;28;20076;-72
2022/05/12 11:22:16;;;;;;;3.05;1.02;;;;;;;23.34;36.92;100571.19;5029068;28;20048;-71
2022/05/12 11:25:07;;;;;;;3.92;0.93;;;;;;;23.30;36.96;100568.94;5043322;28;20115;-71
2022/05/12 11:27:37;;;;;;;2.35;1.00;;;;;;;23.33;37.35;100564.09;5043190;28;20059;-72
2022/05/12 11:30:25;;;;;;;2.72;1.15;;;;;;;23.35;36.87;100564.81;5040670;28;20056;-73
2022/05/12 11:33:10;;;;;;;3.63;1.30;;;;;;;23.57;36.81;100560.88;5037422;28;20448;-72
2022/05/12 11:35:43;;;;;;;2.00;1.00;;;;;;;24.06;36.73;100572.22;5042490;28;20041;-73
2022/05/12 11:38:37;;;;;;;4.55;0.93;;;;;;;24.22;35.42;100563.41;5041756;28;20045;-77
2022/05/12 11:41:06;;;;;;;4.63;1.10;;;;;;;24.09;36.05;100564.63;5036430;28;20042;-73
2022/05/12 11:46:23;;;;;;;7.68;1.08;;;;;;;23.62;35.82;100573.94;5039791;28;20445;-73
2022/05/12 11:49:21;;;;;;;2.63;0.80;;;;;;;23.50;36.05;100562.44;5042947;28;20144;-76
2022/05/12 11:52:08;;;;;;;3.67;0.95;;;;;;;23.69;35.87;100559.66;5041309;28;20139;-72
2022/05/12 11:54:51;;;;;;;4.03;1.00;;;;;;;24.39;34.49;100555.31;5045706;28;20053;-72
2022/05/12 11:57:43;;;;;;;2.47;0.82;;;;;;;25.04;33.20;100560.31;5042753;28;20060;-72
2022/05/12 12:00:33;;;;;;;2.70;0.82;;;;;;;25.20;32.98;100557.69;5042527;28;20057;-78
2022/05/12 12:03:19;;;;;;;1.63;0.75;;;;;;;24.75;33.25;100553.34;5042780;28;20052;-75
2022/05/12 12:05:49;;;;;;;2.00;0.63;;;;;;;24.47;33.65;100552.66;5038249;28;20558;-71